Time,TemperatureF,DewpointF,PressureIn,WindDirection,WindDirectionDegrees,WindSpeedMPH,WindSpeedGustMPH,Humidity,HourlyPrecipIn,Conditions,Clouds,dailyrainin,SoftwareType,DateUTC
2013-02-05 00:11:00,21.4,19.7,29.61,SSW,202,6.3,-999.0,93,-99.99,,,0.00,Acu-Link.com,2013-02-05 06:11:00,
2013-02-05 00:26:00,21.4,19.7,29.61,SSW,202,6.8,-999.0,93,-99.99,,,0.00,Acu-Link.com,2013-02-05 06:26:00,
2013-02-05 00:41:00,21.4,19.9,29.60,South,180,7.3,-999.0,94,-99.99,,,0.00,Acu-Link.com,2013-02-05 06:41:00,
2013-02-05 00:57:00,21.9,20.4,29.60,SSW,202,8.9,-999.0,94,-99.99,,,0.00,Acu-Link.com,2013-02-05 06:57:00,
2013-02-05 01:12:00,23.0,21.3,29.59,WSW,247,6.8,-999.0,93,-99.99,,,0.00,Acu-Link.com,2013-02-05 07:12:00,
2013-02-05 01:27:00,23.7,21.7,29.59,SSW,202,8.3,-999.0,92,-99.99,,,0.00,Acu-Link.com,2013-02-05 07:27:00,
2013-02-05 01:43:00,24.1,22.1,29.58,SW,225,8.3,-999.0,92,-99.99,,,0.00,Acu-Link.com,2013-02-05 07:43:00,
2013-02-05 01:58:00,23.9,21.9,29.58,SSW,202,7.3,-999.0,92,-99.99,,,0.00,Acu-Link.com,2013-02-05 07:58:00,
2013-02-05 02:13:00,23.7,21.7,29.58,SW,225,6.3,-999.0,92,-99.99,,,0.00,Acu-Link.com,2013-02-05 08:13:00,
2013-02-05 02:28:00,24.4,22.4,29.58,SSW,202,3.7,-999.0,92,-99.99,,,0.00,Acu-Link.com,2013-02-05 08:28:00,
2013-02-05 02:44:00,24.6,22.6,29.59,SSW,202,3.7,-999.0,92,-99.99,,,0.00,Acu-Link.com,2013-02-05 08:44:00,
2013-02-05 02:59:00,24.8,22.8,29.58,South,180,4.2,-999.0,92,-99.99,,,0.00,Acu-Link.com,2013-02-05 08:59:00,
2013-02-05 03:14:00,24.6,22.4,29.58,SSW,202,2.7,-999.0,91,-99.99,,,0.00,Acu-Link.com,2013-02-05 09:14:00,
2013-02-05 03:29:00,27.0,24.2,29.57,WSW,247,13.0,-999.0,89,-99.99,,,0.00,Acu-Link.com,2013-02-05 09:29:00,
2013-02-05 03:45:00,27.7,24.6,29.57,WNW,292,7.3,-999.0,88,-99.99,,,0.00,Acu-Link.com,2013-02-05 09:45:00,
2013-02-05 04:00:00,28.2,24.8,29.58,West,270,6.3,-999.0,87,-99.99,,,0.00,Acu-Link.com,2013-02-05 10:00:00,
2013-02-05 04:15:00,27.9,24.5,29.57,West,270,3.7,-999.0,87,-99.99,,,0.00,Acu-Link.com,2013-02-05 10:15:00,
2013-02-05 04:30:00,28.0,24.6,29.58,West,270,4.2,-999.0,87,-99.99,,,0.00,Acu-Link.com,2013-02-05 10:30:00,
2013-02-05 04:45:00,28.8,25.4,29.59,WSW,247,5.3,-999.0,87,-99.99,,,0.00,Acu-Link.com,2013-02-05 10:45:00,
2013-02-05 05:01:00,29.5,26.1,29.59,WSW,247,5.8,-999.0,87,-99.99,,,0.00,Acu-Link.com,2013-02-05 11:01:00,
2013-02-05 05:16:00,29.7,26.3,29.59,West,270,6.8,-999.0,87,-99.99,,,0.00,Acu-Link.com,2013-02-05 11:16:00,
2013-02-05 05:31:00,30.4,26.7,29.60,West,270,6.3,-999.0,86,-99.99,,,0.00,Acu-Link.com,2013-02-05 11:31:00,
2013-02-05 05:46:00,31.8,27.2,29.61,West,270,9.4,-999.0,83,-99.99,,,0.00,Acu-Link.com,2013-02-05 11:46:00,
2013-02-05 06:01:00,32.0,27.4,29.61,WNW,292,10.9,-999.0,83,-99.99,,,0.00,Acu-Link.com,2013-02-05 12:01:00,
2013-02-05 06:17:00,32.0,27.4,29.62,WNW,292,7.3,-999.0,83,-99.99,,,0.00,Acu-Link.com,2013-02-05 12:17:00,
2013-02-05 06:32:00,31.6,27.0,29.62,NW,315,8.9,-999.0,83,-99.99,,,0.00,Acu-Link.com,2013-02-05 12:32:00,
2013-02-05 06:47:00,31.6,27.0,29.64,West,270,14.5,-999.0,83,-99.99,,,0.00,Acu-Link.com,2013-02-05 12:47:00,
2013-02-05 07:02:00,31.3,27.0,29.64,NNW,337,14.0,-999.0,84,-99.99,,,0.00,Acu-Link.com,2013-02-05 13:02:00,
2013-02-05 07:17:00,31.3,27.3,29.65,WNW,292,9.4,-999.0,85,-99.99,,,0.00,Acu-Link.com,2013-02-05 13:17:00,
2013-02-05 07:33:00,31.1,27.4,29.67,WNW,292,11.9,-999.0,86,-99.99,,,0.00,Acu-Link.com,2013-02-05 13:33:00,
2013-02-05 07:48:00,30.9,27.2,29.68,NW,315,6.8,-999.0,86,-99.99,,,0.00,Acu-Link.com,2013-02-05 13:48:00,
2013-02-05 08:03:00,31.3,27.3,29.69,WNW,292,13.5,-999.0,85,-99.99,,,0.00,Acu-Link.com,2013-02-05 14:03:00,
2013-02-05 08:19:00,31.5,27.2,29.70,WNW,292,8.3,-999.0,84,-99.99,,,0.00,Acu-Link.com,2013-02-05 14:19:00,
2013-02-05 08:34:00,32.0,27.4,29.72,WNW,292,6.3,-999.0,83,-99.99,,,0.00,Acu-Link.com,2013-02-05 14:34:00,
2013-02-05 08:49:00,33.1,28.2,29.72,NNW,337,8.3,-999.0,82,-99.99,,,0.00,Acu-Link.com,2013-02-05 14:49:00,
2013-02-05 09:04:00,33.8,28.3,29.73,WNW,292,11.4,-999.0,80,-99.99,,,0.00,Acu-Link.com,2013-02-05 15:04:00,
2013-02-05 09:20:00,34.3,28.5,29.74,WNW,292,16.6,-999.0,79,-99.99,,,0.00,Acu-Link.com,2013-02-05 15:20:00,
2013-02-05 09:35:00,34.7,28.6,29.75,NW,315,15.0,-999.0,78,-99.99,,,0.00,Acu-Link.com,2013-02-05 15:35:00,
2013-02-05 09:50:00,35.2,28.7,29.75,West,270,10.4,-999.0,77,-99.99,,,0.00,Acu-Link.com,2013-02-05 15:50:00,
2013-02-05 10:05:00,35.1,28.6,29.77,WNW,292,14.5,-999.0,77,-99.99,,,0.00,Acu-Link.com,2013-02-05 16:05:00,
2013-02-05 10:20:00,35.8,28.7,29.79,NW,315,16.6,-999.0,75,-99.99,,,0.00,Acu-Link.com,2013-02-05 16:20:00,
2013-02-05 10:35:00,36.0,28.9,29.79,NW,315,10.9,-999.0,75,-99.99,,,0.00,Acu-Link.com,2013-02-05 16:35:00,
2013-02-05 10:51:00,36.1,28.6,29.80,NW,315,8.3,-999.0,74,-99.99,,,0.00,Acu-Link.com,2013-02-05 16:51:00,
2013-02-05 11:06:00,36.9,29.1,29.81,West,270,17.1,-999.0,73,-99.99,,,0.00,Acu-Link.com,2013-02-05 17:06:00,
2013-02-05 11:21:00,36.9,29.1,29.81,West,270,18.6,-999.0,73,-99.99,,,0.00,Acu-Link.com,2013-02-05 17:21:00,
2013-02-05 11:36:00,36.9,28.7,29.82,West,270,16.1,-999.0,72,-99.99,,,0.00,Acu-Link.com,2013-02-05 17:36:00,
2013-02-05 11:51:00,37.2,28.7,29.82,NE,45,15.0,-999.0,71,-99.99,,,0.00,Acu-Link.com,2013-02-05 17:51:00,
2013-02-05 12:07:00,37.9,29.4,29.83,WSW,247,10.9,-999.0,71,-99.99,,,0.00,Acu-Link.com,2013-02-05 18:07:00,
2013-02-05 12:22:00,38.1,29.2,29.83,West,270,15.0,-999.0,70,-99.99,,,0.00,Acu-Link.com,2013-02-05 18:22:00,
2013-02-05 12:37:00,38.3,29.0,29.82,NE,45,11.9,-999.0,69,-99.99,,,0.00,Acu-Link.com,2013-02-05 18:37:00,
2013-02-05 12:52:00,39.0,29.3,29.84,WNW,292,12.5,-999.0,68,-99.99,,,0.00,Acu-Link.com,2013-02-05 18:52:00,
2013-02-05 13:07:00,38.8,29.5,29.83,WNW,292,12.5,-999.0,69,-99.99,,,0.00,Acu-Link.com,2013-02-05 19:07:00,
2013-02-05 13:22:00,38.7,29.8,29.84,NW,315,10.9,-999.0,70,-99.99,,,0.00,Acu-Link.com,2013-02-05 19:22:00,
2013-02-05 13:38:00,38.3,29.4,29.84,NW,315,16.6,-999.0,70,-99.99,,,0.00,Acu-Link.com,2013-02-05 19:38:00,
2013-02-05 13:53:00,37.4,29.2,29.85,NNW,337,10.9,-999.0,72,-99.99,,,0.00,Acu-Link.com,2013-02-05 19:53:00,
2013-02-05 14:08:00,35.4,28.3,29.85,NW,315,15.0,-999.0,75,-99.99,,,0.00,Acu-Link.com,2013-02-05 20:08:00,
2013-02-05 14:23:00,35.2,28.1,29.86,NW,315,12.5,-999.0,75,-99.99,,,0.00,Acu-Link.com,2013-02-05 20:23:00,
2013-02-05 14:38:00,34.7,27.6,29.86,NNW,337,16.1,-999.0,75,-99.99,,,0.00,Acu-Link.com,2013-02-05 20:38:00,
2013-02-05 14:54:00,34.2,27.8,29.87,NW,315,7.3,-999.0,77,-99.99,,,0.00,Acu-Link.com,2013-02-05 20:54:00,
2013-02-05 15:09:00,34.0,27.6,29.87,NW,315,9.4,-999.0,77,-99.99,,,0.00,Acu-Link.com,2013-02-05 21:09:00,
2013-02-05 15:24:00,34.0,27.6,29.88,West,270,8.3,-999.0,77,-99.99,,,0.00,Acu-Link.com,2013-02-05 21:24:00,
2013-02-05 15:39:00,33.8,27.4,29.88,NW,315,10.9,-999.0,77,-99.99,,,0.00,Acu-Link.com,2013-02-05 21:39:00,
2013-02-05 15:55:00,33.8,27.1,29.89,WNW,292,7.8,-999.0,76,-99.99,,,0.00,Acu-Link.com,2013-02-05 21:55:00,
2013-02-05 16:10:00,33.8,26.1,29.87,WNW,292,13.5,-999.0,73,-99.99,,,0.00,Acu-Link.com,2013-02-05 22:10:00,
2013-02-05 16:25:00,33.8,26.1,29.88,WNW,292,7.8,-999.0,73,-99.99,,,0.00,Acu-Link.com,2013-02-05 22:25:00,
2013-02-05 16:41:00,33.8,25.7,29.88,NW,315,8.9,-999.0,72,-99.99,,,0.00,Acu-Link.com,2013-02-05 22:41:00,
2013-02-05 16:56:00,33.8,26.1,29.87,NW,315,8.3,-999.0,73,-99.99,,,0.00,Acu-Link.com,2013-02-05 22:56:00,
2013-02-05 17:11:00,33.4,26.0,29.88,NW,315,7.3,-999.0,74,-99.99,,,0.00,Acu-Link.com,2013-02-05 23:11:00,
2013-02-05 17:26:00,33.3,25.9,29.88,WNW,292,4.7,-999.0,74,-99.99,,,0.00,Acu-Link.com,2013-02-05 23:26:00,
2013-02-05 17:41:00,32.9,26.2,29.89,WNW,292,5.8,-999.0,76,-99.99,,,0.00,Acu-Link.com,2013-02-05 23:41:00,
2013-02-05 17:57:00,31.8,25.7,29.89,WNW,292,4.7,-999.0,78,-99.99,,,0.00,Acu-Link.com,2013-02-05 23:57:00,
2013-02-05 18:12:00,31.5,26.1,29.90,West,270,2.7,-999.0,80,-99.99,,,0.00,Acu-Link.com,2013-02-06 00:12:00,
2013-02-05 18:27:00,31.3,26.2,29.90,WNW,292,3.7,-999.0,81,-99.99,,,0.00,Acu-Link.com,2013-02-06 00:27:00,
2013-02-05 18:42:00,31.3,26.5,29.90,NNE,22,5.8,-999.0,82,-99.99,,,0.00,Acu-Link.com,2013-02-06 00:42:00,
2013-02-05 18:58:00,31.3,26.5,29.90,North,0,5.8,-999.0,82,-99.99,,,0.00,Acu-Link.com,2013-02-06 00:58:00,
2013-02-05 19:13:00,30.6,25.8,29.89,NE,45,3.2,-999.0,82,-99.99,,,0.00,Acu-Link.com,2013-02-06 01:13:00,
2013-02-05 19:28:00,30.0,25.8,29.90,NNW,337,5.8,-999.0,84,-99.99,,,0.00,Acu-Link.com,2013-02-06 01:28:00,
2013-02-05 19:44:00,29.3,25.4,29.90,North,0,2.7,-999.0,85,-99.99,,,0.00,Acu-Link.com,2013-02-06 01:44:00,
2013-02-05 19:59:00,28.9,25.2,29.91,NW,315,1.7,-999.0,86,-99.99,,,0.00,Acu-Link.com,2013-02-06 01:59:00,
2013-02-05 20:14:00,28.9,25.5,29.91,NNW,337,0.0,-999.0,87,-99.99,,,0.00,Acu-Link.com,2013-02-06 02:14:00,
2013-02-05 20:30:00,28.8,25.4,29.91,WSW,247,1.1,-999.0,87,-99.99,,,0.00,Acu-Link.com,2013-02-06 02:30:00,
2013-02-05 20:45:00,28.6,25.8,29.92,WSW,247,1.7,-999.0,89,-99.99,,,0.00,Acu-Link.com,2013-02-06 02:45:00,
2013-02-05 21:00:00,28.2,25.4,29.91,SSE,157,2.2,-999.0,89,-99.99,,,0.00,Acu-Link.com,2013-02-06 03:00:00,
2013-02-05 21:16:00,27.3,25.0,29.91,ESE,112,1.7,-999.0,91,-99.99,,,0.00,Acu-Link.com,2013-02-06 03:16:00,
2013-02-05 21:31:00,26.4,24.7,29.92,SSE,157,1.7,-999.0,93,-99.99,,,0.00,Acu-Link.com,2013-02-06 03:31:00,
2013-02-05 21:46:00,26.1,24.6,29.91,East,90,1.7,-999.0,94,-99.99,,,0.00,Acu-Link.com,2013-02-06 03:46:00,
2013-02-05 22:02:00,25.5,24.3,29.92,ESE,112,2.2,-999.0,95,-99.99,,,0.00,Acu-Link.com,2013-02-06 04:02:00,
2013-02-05 22:17:00,25.2,24.5,29.92,SE,135,2.7,-999.0,97,-99.99,,,0.00,Acu-Link.com,2013-02-06 04:17:00,
2013-02-05 22:32:00,24.6,23.9,29.92,East,90,1.7,-999.0,97,-99.99,,,0.00,Acu-Link.com,2013-02-06 04:32:00,
2013-02-05 22:47:00,24.4,23.9,29.91,ESE,112,2.7,-999.0,98,-99.99,,,0.00,Acu-Link.com,2013-02-06 04:47:00,
2013-02-05 23:03:00,24.4,23.9,29.90,ESE,112,2.7,-999.0,98,-99.99,,,0.00,Acu-Link.com,2013-02-06 05:03:00,
2013-02-05 23:18:00,24.4,23.9,29.90,ESE,112,2.7,-999.0,98,-99.99,,,0.00,Acu-Link.com,2013-02-06 05:18:00,
2013-02-05 23:33:00,24.1,23.6,29.89,ESE,112,3.2,-999.0,98,-99.99,,,0.00,Acu-Link.com,2013-02-06 05:33:00,
2013-02-05 23:48:00,23.7,23.2,29.89,East,90,4.2,-999.0,98,-99.99,,,0.00,Acu-Link.com,2013-02-06 05:48:00,